sensor_id;sensor_type;location;lat;lon;timestamp;pressure;altitude;pressure_sealevel;temperature;humidity
21449;BME280;10885;52.830;13.788;2023-04-05T05:26:21;101950.16;;;0.39;67.46
21449;BME280;10885;52.830;13.788;2023-04-05T05:31:42;101935.56;;;0.51;67.23
21449;BME280;10885;52.830;13.788;2023-04-05T05:37:03;101933.22;;;0.59;66.58
21449;BME280;10885;52.830;13.788;2023-04-05T05:42:26;101925.50;;;0.58;66.43
21449;BME280;10885;52.830;13.788;2023-04-05T05:47:47;101922.25;;;0.66;66.87
21449;BME280;10885;52.830;13.788;2023-04-05T05:53:08;101925.16;;;0.84;66.22
21449;BME280;10885;52.830;13.788;2023-04-05T05:58:29;101928.38;;;1.04;66.14
21449;BME280;10885;52.830;13.788;2023-04-05T06:03:50;101928.84;;;1.30;66.60
21449;BME280;10885;52.830;13.788;2023-04-05T06:09:12;101934.94;;;1.47;65.28
21449;BME280;10885;52.830;13.788;2023-04-05T06:14:32;101939.63;;;1.58;64.09
21449;BME280;10885;52.830;13.788;2023-04-05T06:19:54;101934.31;;;1.78;64.05
21449;BME280;10885;52.830;13.788;2023-04-05T06:25:15;101945.59;;;2.03;63.47
21449;BME280;10885;52.830;13.788;2023-04-05T06:30:37;101947.47;;;2.20;63.03
21449;BME280;10885;52.830;13.788;2023-04-05T06:35:59;101950.25;;;2.37;62.53
21449;BME280;10885;52.830;13.788;2023-04-05T06:41:22;101950.72;;;2.49;62.96
21449;BME280;10885;52.830;13.788;2023-04-05T06:46:43;101948.06;;;2.71;62.26
21449;BME280;10885;52.830;13.788;2023-04-05T06:52:04;101945.50;;;2.94;62.00
21449;BME280;10885;52.830;13.788;2023-04-05T06:57:28;101936.97;;;3.16;61.90
21449;BME280;10885;52.830;13.788;2023-04-05T07:02:49;101936.09;;;3.32;61.04
21449;BME280;10885;52.830;13.788;2023-04-05T07:08:10;101938.97;;;3.51;61.35
21449;BME280;10885;52.830;13.788;2023-04-05T07:13:31;101939.03;;;3.75;60.69
21449;BME280;10885;52.830;13.788;2023-04-05T07:18:54;101937.34;;;4.08;59.51
21449;BME280;10885;52.830;13.788;2023-04-05T07:24:15;101939.75;;;4.31;59.40
21449;BME280;10885;52.830;13.788;2023-04-05T07:29:38;101939.63;;;4.54;58.71
21449;BME280;10885;52.830;13.788;2023-04-05T07:35:02;101934.03;;;4.74;59.86
21449;BME280;10885;52.830;13.788;2023-04-05T07:40:24;101934.31;;;4.68;58.06
21449;BME280;10885;52.830;13.788;2023-04-05T07:45:45;101940.63;;;4.81;58.23
21449;BME280;10885;52.830;13.788;2023-04-05T07:51:07;101939.56;;;4.78;56.93
21449;BME280;10885;52.830;13.788;2023-04-05T07:56:30;101945.19;;;4.67;57.38
21449;BME280;10885;52.830;13.788;2023-04-05T08:01:51;101950.19;;;4.83;58.13
21449;BME280;10885;52.830;13.788;2023-04-05T08:07:16;101943.53;;;4.92;58.57
21449;BME280;10885;52.830;13.788;2023-04-05T08:12:37;101948.50;;;5.08;58.60
21449;BME280;10885;52.830;13.788;2023-04-05T08:17:58;101944.59;;;5.63;56.65
21449;BME280;10885;52.830;13.788;2023-04-05T08:23:19;101946.16;;;6.13;54.20
21449;BME280;10885;52.830;13.788;2023-04-05T08:28:40;101947.22;;;6.60;53.08
21449;BME280;10885;52.830;13.788;2023-04-05T08:34:01;101945.91;;;6.55;52.73
21449;BME280;10885;52.830;13.788;2023-04-05T08:39:22;101942.94;;;6.42;52.59
21449;BME280;10885;52.830;13.788;2023-04-05T08:44:44;101937.09;;;6.51;52.76
21449;BME280;10885;52.830;13.788;2023-04-05T08:50:09;101924.81;;;6.84;51.83
21449;BME280;10885;52.830;13.788;2023-04-05T08:55:30;101939.88;;;7.08;51.22
21449;BME280;10885;52.830;13.788;2023-04-05T09:00:51;101936.88;;;7.31;50.54
21449;BME280;10885;52.830;13.788;2023-04-05T09:06:13;101938.91;;;7.44;49.94
21449;BME280;10885;52.830;13.788;2023-04-05T09:11:35;101941.97;;;7.59;49.30
21449;BME280;10885;52.830;13.788;2023-04-05T09:16:57;101933.97;;;7.65;47.07
21449;BME280;10885;52.830;13.788;2023-04-05T09:22:21;101938.38;;;7.57;46.80
21449;BME280;10885;52.830;13.788;2023-04-05T09:27:54;101932.56;;;7.87;45.85
21449;BME280;10885;52.830;13.788;2023-04-05T09:33:18;101931.53;;;8.04;44.78
21449;BME280;10885;52.830;13.788;2023-04-05T09:38:42;101943.50;;;7.29;46.71
21449;BME280;10885;52.830;13.788;2023-04-05T09:44:03;101941.03;;;6.75;48.41
21449;BME280;10885;52.830;13.788;2023-04-05T09:49:31;101935.81;;;7.10;48.63
21449;BME280;10885;52.830;13.788;2023-04-05T09:54:55;101934.31;;;7.78;46.28
21449;BME280;10885;52.830;13.788;2023-04-05T10:00:19;101936.88;;;7.78;46.97
21449;BME280;10885;52.830;13.788;2023-04-05T10:05:43;101930.63;;;7.66;46.37
21449;BME280;10885;52.830;13.788;2023-04-05T10:11:04;101933.06;;;7.64;46.46
21449;BME280;10885;52.830;13.788;2023-04-05T10:16:27;101925.75;;;7.59;46.25
21449;BME280;10885;52.830;13.788;2023-04-05T10:21:50;101925.78;;;7.50;47.09
21449;BME280;10885;52.830;13.788;2023-04-05T10:27:16;101923.41;;;7.51;47.23
21449;BME280;10885;52.830;13.788;2023-04-05T10:33:06;101923.97;;;7.76;46.97
21449;BME280;10885;52.830;13.788;2023-04-05T10:38:42;101922.97;;;8.04;47.15
21449;BME280;10885;52.830;13.788;2023-04-05T10:44:09;101919.00;;;8.26;46.19
21449;BME280;10885;52.830;13.788;2023-04-05T10:49:42;101920.06;;;9.18;45.91
21449;BME280;10885;52.830;13.788;2023-04-05T10:55:04;101915.44;;;10.18;44.05
21449;BME280;10885;52.830;13.788;2023-04-05T11:00:26;101921.09;;;11.00;41.88
21449;BME280;10885;52.830;13.788;2023-04-05T11:05:47;101917.72;;;11.35;40.81
21449;BME280;10885;52.830;13.788;2023-04-05T11:11:08;101914.44;;;11.26;40.39
21449;BME280;10885;52.830;13.788;2023-04-05T11:16:39;101912.41;;;10.44;41.81
21449;BME280;10885;52.830;13.788;2023-04-05T11:22:00;101903.50;;;10.18;44.15
21449;BME280;10885;52.830;13.788;2023-04-05T11:27:25;101908.88;;;11.31;41.11
21449;BME280;10885;52.830;13.788;2023-04-05T11:32:48;101909.00;;;10.99;41.57
21449;BME280;10885;52.830;13.788;2023-04-05T11:38:09;101894.28;;;10.20;42.85
21449;BME280;10885;52.830;13.788;2023-04-05T11:43:30;101898.00;;;9.81;45.10
21449;BME280;10885;52.830;13.788;2023-04-05T11:48:51;101904.00;;;10.34;44.37
21449;BME280;10885;52.830;13.788;2023-04-05T11:54:12;101894.53;;;10.55;43.56
21449;BME280;10885;52.830;13.788;2023-04-05T11:59:34;101892.72;;;9.90;43.75
21449;BME280;10885;52.830;13.788;2023-04-05T12:04:56;101891.41;;;9.32;45.98
21449;BME280;10885;52.830;13.788;2023-04-05T12:10:17;101879.09;;;9.48;46.43
21449;BME280;10885;52.830;13.788;2023-04-05T12:15:39;101879.06;;;12.88;41.88
21449;BME280;10885;52.830;13.788;2023-04-05T12:21:02;101869.41;;;17.33;32.67
21449;BME280;10885;52.830;13.788;2023-04-05T12:26:25;101872.47;;;18.71;28.61
21449;BME280;10885;52.830;13.788;2023-04-05T12:31:49;101859.25;;;19.04;28.11
21449;BME280;10885;52.830;13.788;2023-04-05T12:37:10;101856.34;;;18.98;27.65
21449;BME280;10885;52.830;13.788;2023-04-05T12:42:35;101844.19;;;18.77;27.66
21449;BME280;10885;52.830;13.788;2023-04-05T12:47:58;101841.72;;;18.04;28.22
21449;BME280;10885;52.830;13.788;2023-04-05T12:53:25;101835.78;;;17.00;29.04
21449;BME280;10885;52.830;13.788;2023-04-05T12:58:48;101828.91;;;16.84;30.00
21449;BME280;10885;52.830;13.788;2023-04-05T13:04:10;101822.59;;;16.63;28.79
21449;BME280;10885;52.830;13.788;2023-04-05T13:09:35;101820.22;;;16.18;30.03
21449;BME280;10885;52.830;13.788;2023-04-05T13:14:56;101815.19;;;16.05;29.88
21449;BME280;10885;52.830;13.788;2023-04-05T13:20:17;101809.16;;;14.42;31.48
21449;BME280;10885;52.830;13.788;2023-04-05T13:25:42;101806.94;;;13.00;34.29
21449;BME280;10885;52.830;13.788;2023-04-05T13:31:05;101797.16;;;13.33;34.39
21449;BME280;10885;52.830;13.788;2023-04-05T13:36:27;101792.59;;;13.69;34.26
21449;BME280;10885;52.830;13.788;2023-04-05T13:41:48;101785.59;;;13.28;34.27
21449;BME280;10885;52.830;13.788;2023-04-05T13:47:09;101782.22;;;13.29;34.57
21449;BME280;10885;52.830;13.788;2023-04-05T13:52:30;101775.44;;;12.78;34.67
21449;BME280;10885;52.830;13.788;2023-04-05T13:57:51;101775.31;;;12.51;35.82
21449;BME280;10885;52.830;13.788;2023-04-05T14:03:12;101769.06;;;12.72;35.12
21449;BME280;10885;52.830;13.788;2023-04-05T14:08:33;101763.47;;;12.91;34.87
21449;BME280;10885;52.830;13.788;2023-04-05T14:13:53;101754.78;;;13.16;33.49
21449;BME280;10885;52.830;13.788;2023-04-05T14:19:15;101744.31;;;13.66;33.68
21449;BME280;10885;52.830;13.788;2023-04-05T14:24:36;101736.81;;;13.98;31.95
21449;BME280;10885;52.830;13.788;2023-04-05T14:29:57;101741.22;;;14.13;31.74
21449;BME280;10885;52.830;13.788;2023-04-05T14:35:18;101732.63;;;13.71;31.99
21449;BME280;10885;52.830;13.788;2023-04-05T14:40:39;101737.66;;;13.70;31.62
21449;BME280;10885;52.830;13.788;2023-04-05T14:46:00;101725.94;;;13.33;31.18
21449;BME280;10885;52.830;13.788;2023-04-05T14:51:21;101718.41;;;12.71;32.30
21449;BME280;10885;52.830;13.788;2023-04-05T14:56:41;101715.28;;;11.88;33.23
21449;BME280;10885;52.830;13.788;2023-04-05T15:02:03;101715.91;;;11.49;36.32
21449;BME280;10885;52.830;13.788;2023-04-05T15:07:26;101715.78;;;11.59;37.22
21449;BME280;10885;52.830;13.788;2023-04-05T15:12:47;101712.25;;;11.45;34.72
21449;BME280;10885;52.830;13.788;2023-04-05T15:18:08;101712.94;;;11.31;34.67
21449;BME280;10885;52.830;13.788;2023-04-05T15:23:29;101700.94;;;11.55;36.21
21449;BME280;10885;52.830;13.788;2023-04-05T15:28:50;101704.19;;;11.52;35.94
21449;BME280;10885;52.830;13.788;2023-04-05T15:34:11;101708.03;;;10.99;37.11
21449;BME280;10885;52.830;13.788;2023-04-05T15:39:32;101699.09;;;10.48;37.57
21449;BME280;10885;52.830;13.788;2023-04-05T15:44:53;101699.00;;;10.02;39.00
21449;BME280;10885;52.830;13.788;2023-04-05T15:50:14;101700.09;;;9.72;40.11
21449;BME280;10885;52.830;13.788;2023-04-05T15:55:35;101698.34;;;9.28;42.10
21449;BME280;10885;52.830;13.788;2023-04-05T16:00:56;101691.47;;;9.17;43.14
21449;BME280;10885;52.830;13.788;2023-04-05T16:06:16;101689.44;;;9.13;42.50
21449;BME280;10885;52.830;13.788;2023-04-05T16:11:38;101687.66;;;9.12;42.69
21449;BME280;10885;52.830;13.788;2023-04-05T16:16:59;101688.31;;;8.99;42.66
21449;BME280;10885;52.830;13.788;2023-04-05T16:22:20;101689.34;;;8.91;43.29
21449;BME280;10885;52.830;13.788;2023-04-05T16:27:41;101690.94;;;8.68;43.77
21449;BME280;10885;52.830;13.788;2023-04-05T16:33:02;101696.94;;;8.59;43.27
21449;BME280;10885;52.830;13.788;2023-04-05T16:38:24;101705.19;;;8.25;44.23
21449;BME280;10885;52.830;13.788;2023-04-05T16:43:45;101689.72;;;8.03;45.72
21449;BME280;10885;52.830;13.788;2023-04-05T16:49:06;101684.94;;;7.87;45.90
21449;BME280;10885;52.830;13.788;2023-04-05T16:54:27;101682.66;;;7.80;46.84
21449;BME280;10885;52.830;13.788;2023-04-05T16:59:47;101687.59;;;7.68;46.21
21449;BME280;10885;52.830;13.788;2023-04-05T17:05:09;101694.72;;;7.62;46.89
21449;BME280;10885;52.830;13.788;2023-04-05T17:10:29;101695.78;;;7.45;47.10
21449;BME280;10885;52.830;13.788;2023-04-05T17:15:51;101693.34;;;7.36;47.21
21449;BME280;10885;52.830;13.788;2023-04-05T17:21:12;101698.25;;;7.25;47.66
21449;BME280;10885;52.830;13.788;2023-04-05T17:26:33;101694.63;;;7.12;47.58
21449;BME280;10885;52.830;13.788;2023-04-05T17:31:53;101704.88;;;7.04;48.80
21449;BME280;10885;52.830;13.788;2023-04-05T17:37:14;101705.59;;;6.92;48.16
21449;BME280;10885;52.830;13.788;2023-04-05T17:42:35;101703.72;;;6.81;48.68
21449;BME280;10885;52.830;13.788;2023-04-05T17:47:56;101712.00;;;6.79;48.40
21449;BME280;10885;52.830;13.788;2023-04-05T17:53:17;101714.88;;;6.73;48.38
21449;BME280;10885;52.830;13.788;2023-04-05T17:58:38;101717.75;;;6.67;49.30
21449;BME280;10885;52.830;13.788;2023-04-05T18:03:59;101724.28;;;6.55;49.13
21449;BME280;10885;52.830;13.788;2023-04-05T18:09:20;101723.84;;;6.50;49.44
21449;BME280;10885;52.830;13.788;2023-04-05T18:14:41;101739.34;;;6.43;49.49
21449;BME280;10885;52.830;13.788;2023-04-05T18:20:03;101738.31;;;6.41;50.01
21449;BME280;10885;52.830;13.788;2023-04-05T18:25:26;101752.09;;;6.34;50.56
21449;BME280;10885;52.830;13.788;2023-04-05T18:30:47;101751.84;;;6.31;50.26
21449;BME280;10885;52.830;13.788;2023-04-05T18:36:10;101748.72;;;6.25;51.09
21449;BME280;10885;52.830;13.788;2023-04-05T18:41:32;101758.75;;;6.24;51.54
21449;BME280;10885;52.830;13.788;2023-04-05T18:46:53;101758.03;;;6.16;51.22
21449;BME280;10885;52.830;13.788;2023-04-05T18:52:15;101757.63;;;6.11;52.31
21449;BME280;10885;52.830;13.788;2023-04-05T18:57:42;101766.31;;;6.05;52.83
21449;BME280;10885;52.830;13.788;2023-04-05T19:03:03;101774.28;;;5.99;53.16
21449;BME280;10885;52.830;13.788;2023-04-05T19:08:24;101767.22;;;5.96;52.64
21449;BME280;10885;52.830;13.788;2023-04-05T19:13:45;101773.78;;;5.94;52.97
21449;BME280;10885;52.830;13.788;2023-04-05T19:19:06;101778.03;;;5.85;53.18
21449;BME280;10885;52.830;13.788;2023-04-05T19:24:27;101775.63;;;5.78;53.88
21449;BME280;10885;52.830;13.788;2023-04-05T19:29:48;101775.81;;;5.62;54.06
21449;BME280;10885;52.830;13.788;2023-04-05T19:35:09;101775.69;;;5.43;55.17
21449;BME280;10885;52.830;13.788;2023-04-05T19:40:30;101767.03;;;5.24;56.09
21449;BME280;10885;52.830;13.788;2023-04-05T19:45:57;101768.81;;;5.16;55.85
21449;BME280;10885;52.830;13.788;2023-04-05T19:51:25;101768.94;;;5.09;57.13
21449;BME280;10885;52.830;13.788;2023-04-05T19:56:48;101767.59;;;4.95;57.45
21449;BME280;10885;52.830;13.788;2023-04-05T20:02:24;101771.63;;;4.84;58.05
21449;BME280;10885;52.830;13.788;2023-04-05T20:07:49;101765.06;;;4.77;58.55
21449;BME280;10885;52.830;13.788;2023-04-05T20:13:10;101759.34;;;4.71;58.69
21449;BME280;10885;52.830;13.788;2023-04-05T20:18:31;101757.84;;;4.65;59.04
21449;BME280;10885;52.830;13.788;2023-04-05T20:23:53;101744.22;;;4.55;59.36
21449;BME280;10885;52.830;13.788;2023-04-05T20:29:18;101744.47;;;4.41;60.73
21449;BME280;10885;52.830;13.788;2023-04-05T20:34:40;101741.03;;;4.32;60.37
21449;BME280;10885;52.830;13.788;2023-04-05T20:40:04;101742.03;;;4.25;61.21
21449;BME280;10885;52.830;13.788;2023-04-05T20:45:25;101737.56;;;4.23;61.55
21449;BME280;10885;52.830;13.788;2023-04-05T20:50:46;101740.38;;;4.17;61.18
21449;BME280;10885;52.830;13.788;2023-04-05T20:56:09;101731.28;;;4.19;61.29
21449;BME280;10885;52.830;13.788;2023-04-05T21:01:31;101735.91;;;4.23;61.70
21449;BME280;10885;52.830;13.788;2023-04-05T21:06:52;101728.63;;;4.26;61.38
21449;BME280;10885;52.830;13.788;2023-04-05T21:12:13;101726.66;;;4.24;61.32
21449;BME280;10885;52.830;13.788;2023-04-05T21:17:34;101731.16;;;4.26;62.08
21449;BME280;10885;52.830;13.788;2023-04-05T21:22:56;101725.75;;;4.23;61.73
21449;BME280;10885;52.830;13.788;2023-04-05T21:28:17;101730.38;;;4.18;61.75
21449;BME280;10885;52.830;13.788;2023-04-05T21:33:38;101728.00;;;4.20;61.89
21449;BME280;10885;52.830;13.788;2023-04-05T22:25:09;101714.56;;;4.21;61.76
21449;BME280;10885;52.830;13.788;2023-04-05T22:30:30;101715.00;;;4.17;61.62
21449;BME280;10885;52.830;13.788;2023-04-05T22:35:57;101711.84;;;4.11;61.81
21449;BME280;10885;52.830;13.788;2023-04-05T22:41:17;101718.41;;;4.09;62.26
21449;BME280;10885;52.830;13.788;2023-04-05T22:46:39;101720.78;;;4.07;63.10
21449;BME280;10885;52.830;13.788;2023-04-05T22:51:59;101718.25;;;4.07;62.86
21449;BME280;10885;52.830;13.788;2023-04-05T22:57:21;101720.78;;;4.07;63.29
21449;BME280;10885;52.830;13.788;2023-04-05T23:02:42;101721.66;;;4.08;62.51
21449;BME280;10885;52.830;13.788;2023-04-05T23:08:03;101714.66;;;4.05;63.45
21449;BME280;10885;52.830;13.788;2023-04-05T23:13:23;101716.31;;;4.05;63.04
21449;BME280;10885;52.830;13.788;2023-04-05T23:18:44;101721.97;;;4.02;63.45
21449;BME280;10885;52.830;13.788;2023-04-05T23:24:06;101714.78;;;3.98;63.33
21449;BME280;10885;52.830;13.788;2023-04-05T23:29:27;101715.69;;;3.98;63.29
21449;BME280;10885;52.830;13.788;2023-04-05T23:34:48;101711.34;;;3.97;63.89
